sensor_id;sensor_type;location;lat;lon;timestamp;pressure;altitude;pressure_sealevel;temperature;humidity
10518;BME280;5307;42.548;22.968;2023-04-23T00:02:04;93794.59;;;6.46;100.00
10518;BME280;5307;42.548;22.968;2023-04-23T00:04:34;93800.19;;;6.39;100.00
10518;BME280;5307;42.548;22.968;2023-04-23T00:07:02;93792.19;;;6.32;100.00
10518;BME280;5307;42.548;22.968;2023-04-23T00:09:29;93792.03;;;6.39;100.00
10518;BME280;5307;42.548;22.968;2023-04-23T00:11:57;93801.16;;;6.29;100.00
10518;BME280;5307;42.548;22.968;2023-04-23T00:14:27;93794.22;;;6.28;100.00
10518;BME280;5307;42.548;22.968;2023-04-23T00:16:54;93793.03;;;6.29;100.00
10518;BME280;5307;42.548;22.968;2023-04-23T00:19:21;93788.56;;;6.22;100.00
10518;BME280;5307;42.548;22.968;2023-04-23T00:21:48;93796.56;;;6.10;100.00
10518;BME280;5307;42.548;22.968;2023-04-23T00:24:15;93793.94;;;6.06;100.00
10518;BME280;5307;42.548;22.968;2023-04-23T00:26:41;93792.97;;;5.97;100.00
10518;BME280;5307;42.548;22.968;2023-04-23T00:29:08;93792.97;;;5.97;100.00
10518;BME280;5307;42.548;22.968;2023-04-23T00:31:36;93797.81;;;5.85;100.00
10518;BME280;5307;42.548;22.968;2023-04-23T00:34:03;93799.31;;;5.86;100.00
10518;BME280;5307;42.548;22.968;2023-04-23T00:36:30;93794.50;;;5.98;100.00
10518;BME280;5307;42.548;22.968;2023-04-23T00:38:57;93796.56;;;6.10;100.00
10518;BME280;5307;42.548;22.968;2023-04-23T00:41:24;93795.66;;;5.97;100.00
10518;BME280;5307;42.548;22.968;2023-04-23T00:43:53;93794.66;;;5.87;100.00
10518;BME280;5307;42.548;22.968;2023-04-23T00:46:21;93799.66;;;5.88;100.00
10518;BME280;5307;42.548;22.968;2023-04-23T00:48:51;93802.88;;;6.03;100.00
10518;BME280;5307;42.548;22.968;2023-04-23T00:51:18;93800.09;;;5.87;100.00
10518;BME280;5307;42.548;22.968;2023-04-23T00:53:44;93794.63;;;5.90;100.00
10518;BME280;5307;42.548;22.968;2023-04-23T00:56:11;93797.38;;;5.87;100.00
10518;BME280;5307;42.548;22.968;2023-04-23T00:58:39;93803.56;;;5.87;100.00
10518;BME280;5307;42.548;22.968;2023-04-23T01:01:06;93802.53;;;5.61;100.00
10518;BME280;5307;42.548;22.968;2023-04-23T01:03:34;93805.31;;;5.78;100.00
10518;BME280;5307;42.548;22.968;2023-04-23T01:06:04;93801.06;;;5.77;100.00
10518;BME280;5307;42.548;22.968;2023-04-23T01:08:33;93810.03;;;5.54;100.00
10518;BME280;5307;42.548;22.968;2023-04-23T01:11:01;93807.41;;;5.70;100.00
10518;BME280;5307;42.548;22.968;2023-04-23T01:13:28;93798.09;;;5.51;100.00
10518;BME280;5307;42.548;22.968;2023-04-23T01:15:57;93803.16;;;5.69;100.00
10518;BME280;5307;42.548;22.968;2023-04-23T01:18:24;93800.25;;;5.80;100.00
10518;BME280;5307;42.548;22.968;2023-04-23T01:20:51;93799.31;;;5.47;100.00
10518;BME280;5307;42.548;22.968;2023-04-23T01:23:19;93803.47;;;5.31;100.00
10518;BME280;5307;42.548;22.968;2023-04-23T01:25:46;93804.13;;;5.59;100.00
10518;BME280;5307;42.548;22.968;2023-04-23T01:28:13;93804.47;;;5.61;100.00
10518;BME280;5307;42.548;22.968;2023-04-23T01:30:42;93800.84;;;5.48;100.00
10518;BME280;5307;42.548;22.968;2023-04-23T01:33:09;93811.34;;;5.46;100.00
10518;BME280;5307;42.548;22.968;2023-04-23T01:35:37;93806.22;;;5.51;100.00
10518;BME280;5307;42.548;22.968;2023-04-23T01:38:06;93801.00;;;5.17;100.00
10518;BME280;5307;42.548;22.968;2023-04-23T01:40:35;93801.56;;;5.09;100.00
10518;BME280;5307;42.548;22.968;2023-04-23T01:43:04;93804.19;;;5.35;100.00
10518;BME280;5307;42.548;22.968;2023-04-23T01:45:32;93811.28;;;5.49;100.00
10518;BME280;5307;42.548;22.968;2023-04-23T01:47:59;93809.81;;;5.45;100.00
10518;BME280;5307;42.548;22.968;2023-04-23T01:50:26;93806.72;;;5.23;100.00
10518;BME280;5307;42.548;22.968;2023-04-23T01:52:54;93804.13;;;5.39;100.00
10518;BME280;5307;42.548;22.968;2023-04-23T01:55:21;93813.53;;;5.31;100.00
10518;BME280;5307;42.548;22.968;2023-04-23T01:57:49;93808.78;;;5.15;100.00
10518;BME280;5307;42.548;22.968;2023-04-23T02:00:16;93818.88;;;5.34;100.00
10518;BME280;5307;42.548;22.968;2023-04-23T02:02:45;93810.91;;;5.47;100.00
10518;BME280;5307;42.548;22.968;2023-04-23T02:05:13;93819.09;;;5.24;100.00
10518;BME280;5307;42.548;22.968;2023-04-23T02:07:41;93813.25;;;5.02;100.00
10518;BME280;5307;42.548;22.968;2023-04-23T02:10:09;93814.09;;;5.22;100.00
10518;BME280;5307;42.548;22.968;2023-04-23T02:12:36;93809.91;;;5.18;100.00
10518;BME280;5307;42.548;22.968;2023-04-23T02:15:06;93809.63;;;5.12;100.00
10518;BME280;5307;42.548;22.968;2023-04-23T02:17:33;93820.78;;;5.14;100.00
10518;BME280;5307;42.548;22.968;2023-04-23T02:20:01;93817.38;;;5.10;100.00
10518;BME280;5307;42.548;22.968;2023-04-23T02:22:28;93813.94;;;5.10;100.00
10518;BME280;5307;42.548;22.968;2023-04-23T02:24:56;93812.50;;;5.01;100.00
10518;BME280;5307;42.548;22.968;2023-04-23T02:27:24;93795.50;;;5.01;100.00
10518;BME280;5307;42.548;22.968;2023-04-23T02:29:51;93812.31;;;5.12;100.00
10518;BME280;5307;42.548;22.968;2023-04-23T02:32:20;93809.84;;;5.21;100.00
10518;BME280;5307;42.548;22.968;2023-04-23T02:34:47;93813.97;;;5.06;100.00
10518;BME280;5307;42.548;22.968;2023-04-23T02:37:13;93815.56;;;5.03;100.00
10518;BME280;5307;42.548;22.968;2023-04-23T02:39:40;93811.31;;;5.02;100.00
10518;BME280;5307;42.548;22.968;2023-04-23T02:42:07;93815.75;;;4.93;100.00
10518;BME280;5307;42.548;22.968;2023-04-23T02:44:34;93814.75;;;4.83;100.00
10518;BME280;5307;42.548;22.968;2023-04-23T02:47:01;93819.09;;;5.00;100.00
10518;BME280;5307;42.548;22.968;2023-04-23T02:49:29;93810.44;;;4.86;100.00
10518;BME280;5307;42.548;22.968;2023-04-23T02:51:56;93822.56;;;5.01;100.00
10518;BME280;5307;42.548;22.968;2023-04-23T02:54:24;93817.66;;;4.92;100.00
10518;BME280;5307;42.548;22.968;2023-04-23T02:56:51;93823.31;;;5.01;100.00
10518;BME280;5307;42.548;22.968;2023-04-23T02:59:17;93817.78;;;4.85;100.00
10518;BME280;5307;42.548;22.968;2023-04-23T03:01:44;93816.69;;;4.83;100.00
10518;BME280;5307;42.548;22.968;2023-04-23T03:04:11;93819.50;;;4.99;100.00
10518;BME280;5307;42.548;22.968;2023-04-23T03:06:39;93819.81;;;4.81;100.00
10518;BME280;5307;42.548;22.968;2023-04-23T03:09:06;93820.44;;;4.89;100.00
10518;BME280;5307;42.548;22.968;2023-04-23T03:11:33;93813.91;;;4.86;100.00
10518;BME280;5307;42.548;22.968;2023-04-23T03:14:00;93821.50;;;4.71;100.00
10518;BME280;5307;42.548;22.968;2023-04-23T03:16:27;93825.50;;;4.87;100.00
10518;BME280;5307;42.548;22.968;2023-04-23T03:18:54;93820.09;;;4.87;100.00
10518;BME280;5307;42.548;22.968;2023-04-23T03:21:21;93821.50;;;4.95;100.00
10518;BME280;5307;42.548;22.968;2023-04-23T03:23:49;93829.72;;;4.88;100.00
10518;BME280;5307;42.548;22.968;2023-04-23T03:26:16;93828.34;;;4.80;100.00
10518;BME280;5307;42.548;22.968;2023-04-23T03:28:42;93833.09;;;4.95;100.00
10518;BME280;5307;42.548;22.968;2023-04-23T03:31:09;93825.16;;;4.85;100.00
10518;BME280;5307;42.548;22.968;2023-04-23T03:33:36;93833.38;;;5.24;100.00
10518;BME280;5307;42.548;22.968;2023-04-23T03:36:03;93837.22;;;5.03;100.00
10518;BME280;5307;42.548;22.968;2023-04-23T03:38:31;93843.56;;;5.17;100.00
10518;BME280;5307;42.548;22.968;2023-04-23T03:40:59;93834.66;;;4.69;100.00
10518;BME280;5307;42.548;22.968;2023-04-23T03:43:26;93832.31;;;4.71;100.00
10518;BME280;5307;42.548;22.968;2023-04-23T03:45:53;93834.28;;;4.94;100.00
10518;BME280;5307;42.548;22.968;2023-04-23T03:48:20;93838.25;;;5.33;100.00
10518;BME280;5307;42.548;22.968;2023-04-23T03:50:47;93829.38;;;5.32;100.00
10518;BME280;5307;42.548;22.968;2023-04-23T03:53:13;93833.91;;;5.16;100.00
10518;BME280;5307;42.548;22.968;2023-04-23T03:55:42;93835.97;;;5.31;100.00
10518;BME280;5307;42.548;22.968;2023-04-23T03:58:10;93838.31;;;5.29;100.00
10518;BME280;5307;42.548;22.968;2023-04-23T04:00:37;93840.31;;;5.02;100.00
10518;BME280;5307;42.548;22.968;2023-04-23T04:03:04;93842.81;;;4.93;100.00
10518;BME280;5307;42.548;22.968;2023-04-23T04:05:31;93843.78;;;5.02;100.00
10518;BME280;5307;42.548;22.968;2023-04-23T04:07:57;93850.22;;;5.12;100.00
10518;BME280;5307;42.548;22.968;2023-04-23T04:10:24;93854.31;;;5.20;100.00
10518;BME280;5307;42.548;22.968;2023-04-23T04:12:51;93852.50;;;5.14;100.00
10518;BME280;5307;42.548;22.968;2023-04-23T04:15:21;93862.00;;;5.25;100.00
10518;BME280;5307;42.548;22.968;2023-04-23T04:17:47;93859.38;;;5.42;100.00
10518;BME280;5307;42.548;22.968;2023-04-23T04:20:14;93869.03;;;5.43;100.00
10518;BME280;5307;42.548;22.968;2023-04-23T04:22:41;93860.50;;;5.44;100.00
10518;BME280;5307;42.548;22.968;2023-04-23T04:25:08;93866.56;;;5.28;100.00
10518;BME280;5307;42.548;22.968;2023-04-23T04:27:35;93869.88;;;5.16;100.00
10518;BME280;5307;42.548;22.968;2023-04-23T04:30:04;93867.38;;;5.02;100.00
10518;BME280;5307;42.548;22.968;2023-04-23T04:32:32;93864.56;;;4.86;100.00
10518;BME280;5307;42.548;22.968;2023-04-23T04:34:59;93876.19;;;4.83;100.00
10518;BME280;5307;42.548;22.968;2023-04-23T04:37:27;93872.69;;;5.09;100.00
10518;BME280;5307;42.548;22.968;2023-04-23T04:39:53;93878.59;;;5.27;100.00
10518;BME280;5307;42.548;22.968;2023-04-23T04:42:20;93881.00;;;5.22;100.00
10518;BME280;5307;42.548;22.968;2023-04-23T04:44:47;93873.13;;;5.07;100.00
10518;BME280;5307;42.548;22.968;2023-04-23T04:47:13;93874.75;;;5.25;100.00
10518;BME280;5307;42.548;22.968;2023-04-23T04:49:42;93883.22;;;5.27;100.00
10518;BME280;5307;42.548;22.968;2023-04-23T04:52:09;93889.69;;;5.33;100.00
10518;BME280;5307;42.548;22.968;2023-04-23T04:54:36;93885.19;;;5.50;100.00
10518;BME280;5307;42.548;22.968;2023-04-23T04:57:03;93884.53;;;5.85;100.00
10518;BME280;5307;42.548;22.968;2023-04-23T04:59:30;93880.22;;;5.88;100.00
10518;BME280;5307;42.548;22.968;2023-04-23T05:01:57;93882.66;;;5.82;100.00
10518;BME280;5307;42.548;22.968;2023-04-23T05:04:24;93880.88;;;5.72;100.00
10518;BME280;5307;42.548;22.968;2023-04-23T05:06:52;93881.44;;;6.07;100.00
10518;BME280;5307;42.548;22.968;2023-04-23T05:09:19;93892.63;;;6.29;100.00
10518;BME280;5307;42.548;22.968;2023-04-23T05:11:46;93890.25;;;6.11;100.00
10518;BME280;5307;42.548;22.968;2023-04-23T05:14:13;93885.78;;;6.40;100.00
10518;BME280;5307;42.548;22.968;2023-04-23T05:16:39;93895.19;;;6.72;100.00
10518;BME280;5307;42.548;22.968;2023-04-23T05:19:06;93894.03;;;6.89;100.00
10518;BME280;5307;42.548;22.968;2023-04-23T05:21:34;93891.16;;;6.80;100.00
10518;BME280;5307;42.548;22.968;2023-04-23T05:24:02;93893.53;;;6.94;100.00
10518;BME280;5307;42.548;22.968;2023-04-23T05:26:29;93890.94;;;7.07;100.00
10518;BME280;5307;42.548;22.968;2023-04-23T05:28:56;93888.88;;;7.43;100.00
10518;BME280;5307;42.548;22.968;2023-04-23T05:31:22;93896.84;;;7.67;100.00
10518;BME280;5307;42.548;22.968;2023-04-23T05:33:59;93892.63;;;7.50;100.00
10518;BME280;5307;42.548;22.968;2023-04-23T05:36:26;93891.13;;;8.07;100.00
10518;BME280;5307;42.548;22.968;2023-04-23T05:38:53;93893.38;;;8.24;99.92
10518;BME280;5307;42.548;22.968;2023-04-23T05:41:20;93886.72;;;8.25;98.70
10518;BME280;5307;42.548;22.968;2023-04-23T05:43:46;93887.94;;;8.66;96.49
10518;BME280;5307;42.548;22.968;2023-04-23T05:46:13;93888.84;;;8.88;94.93
10518;BME280;5307;42.548;22.968;2023-04-23T05:48:40;93880.44;;;8.96;94.63
10518;BME280;5307;42.548;22.968;2023-04-23T05:51:09;93885.69;;;9.63;92.91
10518;BME280;5307;42.548;22.968;2023-04-23T05:53:36;93890.22;;;8.68;90.84
10518;BME280;5307;42.548;22.968;2023-04-23T05:56:03;93892.41;;;8.98;90.31
10518;BME280;5307;42.548;22.968;2023-04-23T05:58:30;93884.22;;;9.36;91.17
10518;BME280;5307;42.548;22.968;2023-04-23T06:00:57;93881.38;;;9.27;88.90
10518;BME280;5307;42.548;22.968;2023-04-23T06:03:24;93890.69;;;9.77;88.42
10518;BME280;5307;42.548;22.968;2023-04-23T06:05:51;93877.09;;;10.64;84.77
10518;BME280;5307;42.548;22.968;2023-04-23T06:08:19;93880.81;;;9.58;83.19
10518;BME280;5307;42.548;22.968;2023-04-23T06:10:46;93886.41;;;9.89;86.08
10518;BME280;5307;42.548;22.968;2023-04-23T06:13:13;93885.78;;;10.06;84.58
10518;BME280;5307;42.548;22.968;2023-04-23T06:15:40;93884.88;;;10.44;84.90
10518;BME280;5307;42.548;22.968;2023-04-23T06:18:06;93870.97;;;11.22;80.90
10518;BME280;5307;42.548;22.968;2023-04-23T06:20:34;93875.88;;;10.65;79.98
10518;BME280;5307;42.548;22.968;2023-04-23T06:23:01;93871.91;;;10.57;80.27
10518;BME280;5307;42.548;22.968;2023-04-23T06:25:29;93875.31;;;11.42;80.62
10518;BME280;5307;42.548;22.968;2023-04-23T06:27:56;93873.72;;;11.81;77.50
10518;BME280;5307;42.548;22.968;2023-04-23T06:30:23;93874.50;;;12.27;77.15
10518;BME280;5307;42.548;22.968;2023-04-23T06:32:50;93876.78;;;11.83;75.98
10518;BME280;5307;42.548;22.968;2023-04-23T06:35:18;93866.47;;;11.38;76.67
10518;BME280;5307;42.548;22.968;2023-04-23T06:37:44;93868.25;;;11.90;76.74
10518;BME280;5307;42.548;22.968;2023-04-23T06:40:11;93868.53;;;13.07;74.72
10518;BME280;5307;42.548;22.968;2023-04-23T06:42:39;93863.22;;;12.34;74.11
10518;BME280;5307;42.548;22.968;2023-04-23T06:45:07;93866.13;;;12.22;74.87
10518;BME280;5307;42.548;22.968;2023-04-23T06:47:34;93861.41;;;12.22;74.82
10518;BME280;5307;42.548;22.968;2023-04-23T06:50:01;93857.75;;;12.43;73.21
10518;BME280;5307;42.548;22.968;2023-04-23T06:52:29;93852.25;;;13.04;71.42
10518;BME280;5307;42.548;22.968;2023-04-23T06:54:56;93862.09;;;13.29;70.25
10518;BME280;5307;42.548;22.968;2023-04-23T06:57:22;93857.53;;;13.50;69.94
10518;BME280;5307;42.548;22.968;2023-04-23T06:59:53;93848.91;;;13.42;70.41
10518;BME280;5307;42.548;22.968;2023-04-23T07:02:20;93854.84;;;12.56;70.71
10518;BME280;5307;42.548;22.968;2023-04-23T07:04:46;93846.47;;;13.68;69.70
10518;BME280;5307;42.548;22.968;2023-04-23T07:07:13;93846.41;;;13.20;68.60
10518;BME280;5307;42.548;22.968;2023-04-23T07:09:40;93848.69;;;13.79;68.27
10518;BME280;5307;42.548;22.968;2023-04-23T07:12:07;93846.25;;;14.19;66.03
10518;BME280;5307;42.548;22.968;2023-04-23T07:14:34;93847.75;;;14.20;65.84
10518;BME280;5307;42.548;22.968;2023-04-23T07:17:02;93845.00;;;13.82;67.37
10518;BME280;5307;42.548;22.968;2023-04-23T07:19:29;93847.16;;;13.78;66.30
10518;BME280;5307;42.548;22.968;2023-04-23T07:21:55;93844.72;;;14.18;65.83
10518;BME280;5307;42.548;22.968;2023-04-23T07:24:22;93848.69;;;13.79;67.52
10518;BME280;5307;42.548;22.968;2023-04-23T07:26:50;93838.66;;;14.14;67.29
10518;BME280;5307;42.548;22.968;2023-04-23T07:29:19;93841.38;;;14.97;64.76
10518;BME280;5307;42.548;22.968;2023-04-23T07:31:46;93835.09;;;15.26;63.05
10518;BME280;5307;42.548;22.968;2023-04-23T07:34:14;93845.28;;;14.91;64.24
10518;BME280;5307;42.548;22.968;2023-04-23T07:36:40;93841.25;;;14.33;63.38
10518;BME280;5307;42.548;22.968;2023-04-23T07:39:07;93836.19;;;14.70;63.80
10518;BME280;5307;42.548;22.968;2023-04-23T07:41:34;93837.75;;;15.06;61.60
10518;BME280;5307;42.548;22.968;2023-04-23T07:44:01;93833.72;;;14.18;64.08
10518;BME280;5307;42.548;22.968;2023-04-23T07:46:28;93840.44;;;14.85;63.08
10518;BME280;5307;42.548;22.968;2023-04-23T07:48:55;93827.47;;;14.57;62.23
10518;BME280;5307;42.548;22.968;2023-04-23T07:51:23;93836.09;;;14.64;61.58
10518;BME280;5307;42.548;22.968;2023-04-23T07:53:51;93830.59;;;14.94;60.36
10518;BME280;5307;42.548;22.968;2023-04-23T07:56:19;93829.06;;;14.93;57.61
10518;BME280;5307;42.548;22.968;2023-04-23T07:58:46;93824.09;;;15.61;59.01
10518;BME280;5307;42.548;22.968;2023-04-23T08:01:13;93821.91;;;16.06;58.21
10518;BME280;5307;42.548;22.968;2023-04-23T08:03:40;93820.25;;;15.59;58.30
10518;BME280;5307;42.548;22.968;2023-04-23T08:06:07;93823.31;;;15.61;56.97
10518;BME280;5307;42.548;22.968;2023-04-23T08:08:35;93821.84;;;15.80;56.92
10518;BME280;5307;42.548;22.968;2023-04-23T08:11:02;93827.88;;;16.25;57.38
10518;BME280;5307;42.548;22.968;2023-04-23T08:13:29;93819.56;;;16.97;54.23
10518;BME280;5307;42.548;22.968;2023-04-23T08:15:56;93819.47;;;16.34;54.80
10518;BME280;5307;42.548;22.968;2023-04-23T08:18:22;93815.56;;;15.59;52.98
10518;BME280;5307;42.548;22.968;2023-04-23T08:20:50;93815.38;;;16.55;52.57
10518;BME280;5307;42.548;22.968;2023-04-23T08:23:16;93818.06;;;17.02;53.23
10518;BME280;5307;42.548;22.968;2023-04-23T08:25:44;93812.63;;;17.07;56.11
10518;BME280;5307;42.548;22.968;2023-04-23T08:28:11;93809.03;;;17.01;52.39
10518;BME280;5307;42.548;22.968;2023-04-23T08:30:38;93808.59;;;15.84;51.45
10518;BME280;5307;42.548;22.968;2023-04-23T08:33:05;93806.06;;;16.01;51.71
10518;BME280;5307;42.548;22.968;2023-04-23T08:35:32;93798.53;;;16.01;52.26
10518;BME280;5307;42.548;22.968;2023-04-23T08:37:58;93799.22;;;16.95;49.61
10518;BME280;5307;42.548;22.968;2023-04-23T08:40:29;93802.47;;;16.93;49.01
10518;BME280;5307;42.548;22.968;2023-04-23T08:43:01;93804.41;;;16.87;47.70
10518;BME280;5307;42.548;22.968;2023-04-23T08:45:29;93792.06;;;17.99;46.08
10518;BME280;5307;42.548;22.968;2023-04-23T08:47:58;93793.88;;;16.85;47.89
10518;BME280;5307;42.548;22.968;2023-04-23T08:50:27;93793.84;;;16.80;48.59
10518;BME280;5307;42.548;22.968;2023-04-23T08:52:56;93795.31;;;17.07;47.80
10518;BME280;5307;42.548;22.968;2023-04-23T08:55:23;93791.63;;;17.21;47.82
10518;BME280;5307;42.548;22.968;2023-04-23T08:57:51;93779.91;;;18.45;44.89
10518;BME280;5307;42.548;22.968;2023-04-23T09:00:20;93789.06;;;17.49;46.23
10518;BME280;5307;42.548;22.968;2023-04-23T09:02:48;93785.16;;;16.92;43.34
10518;BME280;5307;42.548;22.968;2023-04-23T09:05:16;93785.78;;;16.76;44.56
10518;BME280;5307;42.548;22.968;2023-04-23T09:07:43;93773.41;;;17.83;44.16
10518;BME280;5307;42.548;22.968;2023-04-23T09:10:10;93776.88;;;17.30;44.29
10518;BME280;5307;42.548;22.968;2023-04-23T09:12:39;93762.00;;;18.18;44.44
10518;BME280;5307;42.548;22.968;2023-04-23T09:15:07;93768.53;;;18.26;43.82
10518;BME280;5307;42.548;22.968;2023-04-23T09:18:04;93770.03;;;18.22;44.62
10518;BME280;5307;42.548;22.968;2023-04-23T09:20:33;93767.50;;;18.18;42.70
10518;BME280;5307;42.548;22.968;2023-04-23T09:23:00;93758.97;;;18.27;42.47
10518;BME280;5307;42.548;22.968;2023-04-23T09:25:32;93759.06;;;19.00;42.92
10518;BME280;5307;42.548;22.968;2023-04-23T09:27:59;93757.81;;;18.67;42.25
10518;BME280;5307;42.548;22.968;2023-04-23T09:30:27;93757.06;;;18.67;42.38
10518;BME280;5307;42.548;22.968;2023-04-23T09:32:54;93752.53;;;18.92;42.53
10518;BME280;5307;42.548;22.968;2023-04-23T09:35:22;93748.44;;;18.31;41.68
10518;BME280;5307;42.548;22.968;2023-04-23T09:37:53;93743.47;;;18.80;41.90
10518;BME280;5307;42.548;22.968;2023-04-23T09:40:22;93745.22;;;19.06;42.65
10518;BME280;5307;42.548;22.968;2023-04-23T09:42:50;93734.59;;;18.20;40.61
10518;BME280;5307;42.548;22.968;2023-04-23T09:45:18;93738.16;;;18.54;41.05
10518;BME280;5307;42.548;22.968;2023-04-23T09:47:49;93735.91;;;19.09;45.39
10518;BME280;5307;42.548;22.968;2023-04-23T09:50:17;93728.25;;;19.65;42.18
10518;BME280;5307;42.548;22.968;2023-04-23T09:53:05;93723.88;;;18.73;39.57
10518;BME280;5307;42.548;22.968;2023-04-23T10:04:17;93709.25;;;19.06;39.98
10518;BME280;5307;42.548;22.968;2023-04-23T10:06:47;93701.47;;;18.71;39.32
10518;BME280;5307;42.548;22.968;2023-04-23T10:09:15;93693.84;;;19.21;40.11
10518;BME280;5307;42.548;22.968;2023-04-23T10:11:48;93694.69;;;18.88;39.77
10518;BME280;5307;42.548;22.968;2023-04-23T10:14:17;93696.13;;;19.28;40.57
10518;BME280;5307;42.548;22.968;2023-04-23T10:16:45;93696.94;;;18.84;40.72
10518;BME280;5307;42.548;22.968;2023-04-23T10:19:13;93692.84;;;18.07;39.79
10518;BME280;5307;42.548;22.968;2023-04-23T10:21:40;93681.03;;;18.12;40.18
10518;BME280;5307;42.548;22.968;2023-04-23T10:24:09;93695.63;;;18.07;39.13
10518;BME280;5307;42.548;22.968;2023-04-23T10:26:41;93686.72;;;17.69;39.68
10518;BME280;5307;42.548;22.968;2023-04-23T10:29:12;93685.59;;;17.44;40.38
10518;BME280;5307;42.548;22.968;2023-04-23T10:31:40;93682.41;;;17.63;40.07
10518;BME280;5307;42.548;22.968;2023-04-23T10:34:08;93672.84;;;17.58;39.62
10518;BME280;5307;42.548;22.968;2023-04-23T10:36:36;93659.97;;;18.31;38.35
10518;BME280;5307;42.548;22.968;2023-04-23T10:39:03;93668.75;;;18.35;38.64
10518;BME280;5307;42.548;22.968;2023-04-23T10:41:35;93654.41;;;18.43;38.67
10518;BME280;5307;42.548;22.968;2023-04-23T10:44:04;93662.22;;;18.78;39.01
10518;BME280;5307;42.548;22.968;2023-04-23T10:46:32;93660.94;;;18.84;38.20
10518;BME280;5307;42.548;22.968;2023-04-23T10:49:07;93659.13;;;19.20;37.17
10518;BME280;5307;42.548;22.968;2023-04-23T10:51:34;93647.19;;;19.42;38.72
10518;BME280;5307;42.548;22.968;2023-04-23T10:54:02;93642.56;;;18.98;38.29
10518;BME280;5307;42.548;22.968;2023-04-23T10:56:29;93638.84;;;18.79;37.53
10518;BME280;5307;42.548;22.968;2023-04-23T10:58:56;93643.03;;;19.13;36.72
10518;BME280;5307;42.548;22.968;2023-04-23T11:01:27;93640.13;;;19.58;38.15
10518;BME280;5307;42.548;22.968;2023-04-23T11:03:54;93639.28;;;19.74;36.43
10518;BME280;5307;42.548;22.968;2023-04-23T11:09:28;93640.59;;;18.82;37.25
10518;BME280;5307;42.548;22.968;2023-04-23T11:11:55;93650.16;;;18.36;37.04
10518;BME280;5307;42.548;22.968;2023-04-23T11:14:33;93637.84;;;18.20;38.09
10518;BME280;5307;42.548;22.968;2023-04-23T11:17:02;93640.84;;;18.56;38.90
10518;BME280;5307;42.548;22.968;2023-04-23T11:19:29;93640.63;;;18.65;38.04
10518;BME280;5307;42.548;22.968;2023-04-23T11:22:01;93631.31;;;18.34;38.59
10518;BME280;5307;42.548;22.968;2023-04-23T11:24:30;93643.63;;;18.28;35.51
10518;BME280;5307;42.548;22.968;2023-04-23T11:26:57;93648.91;;;18.31;35.82
10518;BME280;5307;42.548;22.968;2023-04-23T11:29:26;93643.88;;;18.35;36.31
10518;BME280;5307;42.548;22.968;2023-04-23T11:31:54;93652.41;;;18.37;35.66
10518;BME280;5307;42.548;22.968;2023-04-23T11:34:23;93647.41;;;18.30;36.47
10518;BME280;5307;42.548;22.968;2023-04-23T11:36:52;93651.13;;;17.94;34.46
10518;BME280;5307;42.548;22.968;2023-04-23T11:39:19;93650.63;;;17.90;35.41
10518;BME280;5307;42.548;22.968;2023-04-23T11:41:46;93650.41;;;18.04;37.58
10518;BME280;5307;42.548;22.968;2023-04-23T11:44:14;93647.13;;;18.06;36.13
10518;BME280;5307;42.548;22.968;2023-04-23T11:46:41;93649.88;;;17.95;35.39
10518;BME280;5307;42.548;22.968;2023-04-23T11:49:08;93644.28;;;17.72;37.10
10518;BME280;5307;42.548;22.968;2023-04-23T11:51:40;93651.78;;;17.66;37.19
10518;BME280;5307;42.548;22.968;2023-04-23T11:54:08;93648.59;;;17.79;36.25
10518;BME280;5307;42.548;22.968;2023-04-23T11:56:35;93653.41;;;17.90;36.87
10518;BME280;5307;42.548;22.968;2023-04-23T11:59:03;93649.94;;;17.41;37.87
10518;BME280;5307;42.548;22.968;2023-04-23T12:01:43;93649.38;;;17.26;39.41
10518;BME280;5307;42.548;22.968;2023-04-23T12:04:12;93652.41;;;17.28;38.15
10518;BME280;5307;42.548;22.968;2023-04-23T12:06:42;93643.28;;;17.05;37.29
10518;BME280;5307;42.548;22.968;2023-04-23T12:09:09;93637.59;;;17.19;37.44
10518;BME280;5307;42.548;22.968;2023-04-23T12:11:37;93638.72;;;16.96;37.78
10518;BME280;5307;42.548;22.968;2023-04-23T12:14:04;93629.75;;;17.07;37.79
10518;BME280;5307;42.548;22.968;2023-04-23T12:16:34;93626.06;;;17.27;39.24
10518;BME280;5307;42.548;22.968;2023-04-23T12:19:00;93622.63;;;17.54;36.77
10518;BME280;5307;42.548;22.968;2023-04-23T12:21:27;93633.22;;;17.61;37.69
10518;BME280;5307;42.548;22.968;2023-04-23T12:23:56;93621.13;;;17.53;35.45
10518;BME280;5307;42.548;22.968;2023-04-23T12:26:24;93620.88;;;17.45;36.14
10518;BME280;5307;42.548;22.968;2023-04-23T12:28:52;93615.47;;;17.96;35.61
10518;BME280;5307;42.548;22.968;2023-04-23T12:31:21;93613.72;;;17.93;34.78
10518;BME280;5307;42.548;22.968;2023-04-23T12:33:55;93602.16;;;17.89;34.03
10518;BME280;5307;42.548;22.968;2023-04-23T12:36:26;93609.88;;;17.62;34.13
10518;BME280;5307;42.548;22.968;2023-04-23T12:38:53;93595.69;;;17.21;33.44
10518;BME280;5307;42.548;22.968;2023-04-23T12:41:21;93599.78;;;17.59;33.09
10518;BME280;5307;42.548;22.968;2023-04-23T12:43:48;93588.50;;;17.46;33.54
10518;BME280;5307;42.548;22.968;2023-04-23T12:46:15;93583.53;;;17.72;33.43
10518;BME280;5307;42.548;22.968;2023-04-23T12:48:42;93588.03;;;17.64;34.09
10518;BME280;5307;42.548;22.968;2023-04-23T12:51:09;93587.53;;;17.60;32.91
10518;BME280;5307;42.548;22.968;2023-04-23T12:53:36;93583.53;;;17.72;33.78
10518;BME280;5307;42.548;22.968;2023-04-23T12:56:03;93579.00;;;17.69;35.92
10518;BME280;5307;42.548;22.968;2023-04-23T12:58:31;93583.50;;;17.61;33.51
10518;BME280;5307;42.548;22.968;2023-04-23T13:00:57;93579.06;;;18.03;35.64
10518;BME280;5307;42.548;22.968;2023-04-23T13:03:24;93567.72;;;18.01;33.76
10518;BME280;5307;42.548;22.968;2023-04-23T13:05:51;93570.97;;;18.27;33.75
10518;BME280;5307;42.548;22.968;2023-04-23T13:08:18;93567.75;;;17.90;35.43
10518;BME280;5307;42.548;22.968;2023-04-23T13:10:45;93562.88;;;17.57;32.25
10518;BME280;5307;42.548;22.968;2023-04-23T13:13:11;93570.50;;;17.84;35.24
10518;BME280;5307;42.548;22.968;2023-04-23T13:15:41;93567.50;;;17.88;33.88